createdAt,value
2018-05-06T00:00:06.656Z,0
2018-05-06T00:01:06.999Z,0
2018-05-06T00:02:06.707Z,0
2018-05-06T00:03:06.469Z,0
2018-05-06T00:04:06.747Z,0
2018-05-06T00:05:07.285Z,0
2018-05-06T00:06:06.803Z,0
2018-05-06T00:07:07.325Z,4
2018-05-06T00:08:07.345Z,4
2018-05-06T00:09:07.115Z,4
2018-05-06T00:10:07.126Z,0
2018-05-06T00:11:07.403Z,4
2018-05-06T00:12:07.421Z,4
2018-05-06T00:13:07.461Z,4
2018-05-06T00:14:07.483Z,0
2018-05-06T00:15:07.519Z,0
2018-05-06T00:16:07.325Z,0
2018-05-06T00:17:07.554Z,0
2018-05-06T00:18:07.323Z,0
2018-05-06T00:19:07.597Z,0
2018-05-06T00:20:07.112Z,0
2018-05-06T00:21:07.713Z,0
2018-05-06T00:22:07.675Z,0
2018-05-06T00:23:07.689Z,0
2018-05-06T00:24:07.457Z,0
2018-05-06T00:25:07.477Z,0
2018-05-06T00:26:07.502Z,0
2018-05-06T00:27:07.789Z,0
2018-05-06T00:28:07.799Z,0
2018-05-06T00:29:07.842Z,0
2018-05-06T00:30:07.603Z,0
2018-05-06T00:31:07.418Z,0
2018-05-06T00:32:07.654Z,0
2018-05-06T00:33:07.666Z,0
2018-05-06T00:34:07.932Z,0
2018-05-06T00:35:07.955Z,0
2018-05-06T00:36:07.737Z,0
2018-05-06T00:37:07.521Z,0
2018-05-06T00:38:07.774Z,0
2018-05-06T00:39:07.540Z,4
2018-05-06T00:40:07.566Z,4
2018-05-06T00:41:08.094Z,4
2018-05-06T00:42:07.606Z,0
2018-05-06T00:43:07.632Z,0
2018-05-06T00:44:07.908Z,0
2018-05-06T00:45:08.194Z,4
2018-05-06T00:46:08.262Z,4
2018-05-06T00:47:07.724Z,0
2018-05-06T00:48:07.743Z,0
2018-05-06T00:49:07.513Z,0
2018-05-06T00:50:07.794Z,0
2018-05-06T00:51:08.090Z,0
2018-05-06T00:52:08.349Z,0
2018-05-06T00:53:08.364Z,0
2018-05-06T00:54:07.892Z,0
2018-05-06T00:55:08.419Z,4
2018-05-06T00:56:08.197Z,4
2018-05-06T00:57:08.456Z,4
2018-05-06T00:58:08.217Z,4
2018-05-06T00:59:07.986Z,0
2018-05-06T01:00:08.021Z,0
2018-05-06T01:01:08.611Z,0
2018-05-06T01:02:08.561Z,0
2018-05-06T01:03:08.586Z,0
2018-05-06T01:04:08.355Z,0
2018-05-06T01:05:08.641Z,0
2018-05-06T01:06:08.661Z,0
2018-05-06T01:07:08.170Z,0
2018-05-06T01:08:08.448Z,0
2018-05-06T01:09:08.721Z,0
2018-05-06T01:10:08.749Z,0
2018-05-06T01:11:08.517Z,0
2018-05-06T01:12:08.548Z,0
2018-05-06T01:13:08.813Z,0
2018-05-06T01:14:08.588Z,0
2018-05-06T01:15:08.593Z,0
2018-05-06T01:16:08.911Z,0
2018-05-06T01:17:08.678Z,0
2018-05-06T01:18:08.149Z,0
2018-05-06T01:19:08.696Z,0
2018-05-06T01:20:08.967Z,0
2018-05-06T01:21:08.468Z,0
2018-05-06T01:22:09.003Z,0
2018-05-06T01:23:08.783Z,0
2018-05-06T01:24:08.561Z,0
2018-05-06T01:25:08.565Z,0
2018-05-06T01:26:08.848Z,0
2018-05-06T01:27:09.134Z,0
2018-05-06T01:28:09.139Z,0
2018-05-06T01:29:08.908Z,4
2018-05-06T01:30:09.189Z,4
2018-05-06T01:31:09.004Z,0
2018-05-06T01:32:08.745Z,0
2018-05-06T01:33:09.274Z,0
2018-05-06T01:34:08.772Z,0
2018-05-06T01:35:09.057Z,0
2018-05-06T01:36:08.872Z,0
2018-05-06T01:37:09.160Z,0
2018-05-06T01:38:08.868Z,0
2018-05-06T01:39:09.477Z,0
2018-05-06T01:40:09.164Z,0
2018-05-06T01:41:08.917Z,0
2018-05-06T01:42:09.023Z,0
2018-05-06T01:43:09.222Z,0
2018-05-06T01:44:09.236Z,0
2018-05-06T01:45:09.513Z,0
2018-05-06T01:46:09.335Z,0
2018-05-06T01:47:09.555Z,0
2018-05-06T01:48:09.080Z,0
2018-05-06T01:49:09.101Z,0
2018-05-06T01:50:09.133Z,0
2018-05-06T01:51:09.154Z,0
2018-05-06T01:52:09.178Z,0
2018-05-06T01:53:09.198Z,0
2018-05-06T01:54:09.743Z,0
2018-05-06T01:55:09.749Z,0
2018-05-06T01:56:09.515Z,0
2018-05-06T01:57:09.807Z,0
2018-05-06T01:58:09.565Z,0
2018-05-06T01:59:09.586Z,0
2018-05-06T02:00:09.871Z,0
2018-05-06T02:01:09.624Z,0
2018-05-06T02:02:09.909Z,0
2018-05-06T02:03:09.427Z,0
2018-05-06T02:04:10.281Z,0
2018-05-06T02:05:09.723Z,0
2018-05-06T02:06:09.743Z,0
2018-05-06T02:07:09.766Z,0
2018-05-06T02:08:09.810Z,0
2018-05-06T02:09:10.056Z,0
2018-05-06T02:10:09.825Z,0
2018-05-06T02:11:09.854Z,0
2018-05-06T02:12:10.127Z,0
2018-05-06T02:13:09.639Z,0
2018-05-06T02:14:09.917Z,0
2018-05-06T02:15:09.941Z,0
2018-05-06T02:16:10.216Z,0
2018-05-06T02:17:09.993Z,0
2018-05-06T02:18:09.515Z,0
2018-05-06T02:19:10.087Z,0
2018-05-06T02:20:10.051Z,0
2018-05-06T02:21:09.563Z,0
2018-05-06T02:22:10.355Z,0
2018-05-06T02:23:10.374Z,0
2018-05-06T02:24:10.408Z,0
2018-05-06T02:25:10.167Z,0
2018-05-06T02:26:09.935Z,0
2018-05-06T02:27:10.468Z,0
2018-05-06T02:28:09.972Z,0
2018-05-06T02:29:09.734Z,0
2018-05-06T02:30:10.546Z,0
2018-05-06T02:31:10.048Z,0
2018-05-06T02:32:10.586Z,0
2018-05-06T02:33:10.618Z,0
2018-05-06T02:34:10.687Z,0
2018-05-06T02:35:10.856Z,0
2018-05-06T02:36:10.671Z,0
2018-05-06T02:37:10.446Z,0
2018-05-06T02:38:10.799Z,0
2018-05-06T02:39:10.458Z,0
2018-05-06T02:40:10.740Z,0
2018-05-06T02:41:10.284Z,0
2018-05-06T02:42:10.788Z,0
2018-05-06T02:43:10.804Z,0
2018-05-06T02:44:10.722Z,0
2018-05-06T02:45:10.613Z,0
2018-05-06T02:46:10.379Z,0
2018-05-06T02:47:11.023Z,0
2018-05-06T02:48:10.439Z,0
2018-05-06T02:49:10.756Z,0
2018-05-06T02:50:10.980Z,0
2018-05-06T02:51:10.486Z,0
2018-05-06T02:52:11.028Z,0
2018-05-06T02:53:10.540Z,0
2018-05-06T02:54:10.828Z,0
2018-05-06T02:55:11.112Z,0
2018-05-06T02:56:10.857Z,0
2018-05-06T02:57:11.140Z,0
2018-05-06T02:58:11.191Z,0
2018-05-06T02:59:10.968Z,0
2018-05-06T03:00:11.192Z,4
2018-05-06T03:01:10.977Z,4
2018-05-06T03:02:11.238Z,4
2018-05-06T03:03:10.756Z,4
2018-05-06T03:04:10.789Z,4
2018-05-06T03:05:10.801Z,4
2018-05-06T03:06:11.347Z,4
2018-05-06T03:07:11.102Z,4
2018-05-06T03:08:11.122Z,4
2018-05-06T03:09:10.633Z,4
2018-05-06T03:10:11.422Z,4
2018-05-06T03:11:11.517Z,4
2018-05-06T03:12:11.463Z,4
2018-05-06T03:13:11.234Z,4
2018-05-06T03:14:11.299Z,4
2018-05-06T03:15:11.535Z,4
2018-05-06T03:16:11.288Z,4
2018-05-06T03:17:11.560Z,4
2018-05-06T03:18:11.327Z,4
2018-05-06T03:19:11.349Z,4
2018-05-06T03:20:11.125Z,4
2018-05-06T03:21:11.399Z,8
2018-05-06T03:22:11.423Z,4
2018-05-06T03:23:11.698Z,8
2018-05-06T03:24:11.472Z,8
2018-05-06T03:25:11.734Z,8
2018-05-06T03:26:11.505Z,8
2018-05-06T03:27:11.778Z,12
2018-05-06T03:28:11.547Z,16
2018-05-06T03:29:11.872Z,16
2018-05-06T03:30:11.629Z,20
2018-05-06T03:31:11.646Z,20
2018-05-06T03:32:11.658Z,24
2018-05-06T03:33:11.673Z,28
2018-05-06T03:34:11.722Z,36
2018-05-06T03:35:11.721Z,36
2018-05-06T03:36:11.999Z,44
2018-05-06T03:37:12.019Z,48
2018-05-06T03:38:12.040Z,60
2018-05-06T03:39:11.810Z,64
2018-05-06T03:40:12.094Z,76
2018-05-06T03:41:11.855Z,84
2018-05-06T03:42:11.878Z,96
2018-05-06T03:43:11.902Z,108
2018-05-06T03:44:12.230Z,116
2018-05-06T03:45:12.194Z,136
2018-05-06T03:46:11.965Z,144
2018-05-06T03:47:11.988Z,164
2018-05-06T03:48:12.005Z,176
2018-05-06T03:49:12.035Z,196
2018-05-06T03:50:12.067Z,212
2018-05-06T03:51:12.080Z,228
2018-05-06T03:52:12.097Z,244
2018-05-06T03:53:12.118Z,264
2018-05-06T03:54:12.144Z,284
2018-05-06T03:55:12.165Z,308
2018-05-06T03:56:12.188Z,332
2018-05-06T03:57:12.473Z,356
2018-05-06T03:58:12.480Z,384
2018-05-06T03:59:12.061Z,408
2018-05-06T04:00:12.271Z,436
2018-05-06T04:01:12.557Z,464
2018-05-06T04:02:12.063Z,492
2018-05-06T04:03:12.586Z,524
2018-05-06T04:04:12.411Z,548
2018-05-06T04:05:12.384Z,580
2018-05-06T04:06:12.396Z,612
2018-05-06T04:07:12.677Z,640
2018-05-06T04:08:12.444Z,672
2018-05-06T04:09:12.729Z,704
2018-05-06T04:10:12.483Z,736
2018-05-06T04:11:12.536Z,768
2018-05-06T04:12:12.273Z,796
2018-05-06T04:13:12.552Z,832
2018-05-06T04:14:12.828Z,864
2018-05-06T04:15:12.851Z,892
2018-05-06T04:16:12.392Z,924
2018-05-06T04:17:12.381Z,956
2018-05-06T04:18:12.916Z,992
2018-05-06T04:19:12.996Z,1028
2018-05-06T04:20:12.461Z,1060
2018-05-06T04:21:12.540Z,1096
2018-05-06T04:22:12.750Z,1132
2018-05-06T04:23:12.767Z,1168
2018-05-06T04:24:13.037Z,1204
2018-05-06T04:25:12.813Z,1240
2018-05-06T04:26:12.846Z,1280
2018-05-06T04:27:13.122Z,1316
2018-05-06T04:28:12.874Z,1348
2018-05-06T04:29:12.656Z,1380
2018-05-06T04:30:13.183Z,1408
2018-05-06T04:31:13.202Z,1428
2018-05-06T04:32:13.235Z,1456
2018-05-06T04:33:13.323Z,1488
2018-05-06T04:34:13.312Z,1512
2018-05-06T04:35:13.289Z,1536
2018-05-06T04:36:13.319Z,1560
2018-05-06T04:37:13.086Z,1564
2018-05-06T04:38:13.093Z,1572
2018-05-06T04:39:13.370Z,1580
2018-05-06T04:40:13.389Z,1556
2018-05-06T04:41:13.422Z,1556
2018-05-06T04:42:13.179Z,1536
2018-05-06T04:43:13.224Z,1544
2018-05-06T04:44:13.334Z,1532
2018-05-06T04:45:13.252Z,1540
2018-05-06T04:46:13.518Z,1556
2018-05-06T04:47:13.289Z,1604
2018-05-06T04:48:13.309Z,1632
2018-05-06T04:49:13.379Z,1672
2018-05-06T04:50:13.352Z,1728
2018-05-06T04:51:13.376Z,1748
2018-05-06T04:52:13.423Z,1792
2018-05-06T04:53:12.928Z,1844
2018-05-06T04:54:13.187Z,1876
2018-05-06T04:55:13.457Z,1896
2018-05-06T04:56:13.722Z,1924
2018-05-06T04:57:13.731Z,1920
2018-05-06T04:58:13.494Z,1952
2018-05-06T04:59:13.597Z,2040
2018-05-06T05:00:13.567Z,2128
2018-05-06T05:01:13.611Z,2216
2018-05-06T05:02:13.615Z,2348
2018-05-06T05:03:13.635Z,2492
2018-05-06T05:04:13.715Z,2668
2018-05-06T05:05:13.421Z,2796
2018-05-06T05:06:13.702Z,2888
2018-05-06T05:07:13.972Z,2944
2018-05-06T05:08:13.764Z,3044
2018-05-06T05:09:13.762Z,3064
2018-05-06T05:10:14.057Z,3092
2018-05-06T05:11:13.817Z,3132
2018-05-06T05:12:14.079Z,3160
2018-05-06T05:13:13.850Z,3172
2018-05-06T05:14:14.198Z,3220
2018-05-06T05:15:13.901Z,3248
2018-05-06T05:16:14.174Z,3276
2018-05-06T05:17:14.205Z,3344
2018-05-06T05:18:13.961Z,3420
2018-05-06T05:19:14.242Z,3480
2018-05-06T05:20:14.262Z,3512
2018-05-06T05:21:14.032Z,3548
2018-05-06T05:22:14.300Z,3584
2018-05-06T05:23:14.332Z,3632
2018-05-06T05:24:14.365Z,3672
2018-05-06T05:25:14.124Z,3704
2018-05-06T05:26:14.141Z,3744
2018-05-06T05:27:14.415Z,3784
2018-05-06T05:28:14.182Z,3824
2018-05-06T05:29:14.510Z,3876
2018-05-06T05:30:14.221Z,3888
2018-05-06T05:31:14.507Z,3996
2018-05-06T05:32:14.511Z,4072
2018-05-06T05:33:14.374Z,4172
2018-05-06T05:34:14.307Z,4292
2018-05-06T05:35:14.329Z,4376
2018-05-06T05:36:14.602Z,4428
2018-05-06T05:37:14.375Z,4564
2018-05-06T05:38:14.661Z,4732
2018-05-06T05:39:14.677Z,4844
2018-05-06T05:40:14.698Z,4880
2018-05-06T05:41:14.452Z,4756
2018-05-06T05:42:14.482Z,4676
2018-05-06T05:43:14.502Z,4596
2018-05-06T05:44:14.572Z,4588
2018-05-06T05:45:14.803Z,4588
2018-05-06T05:46:14.816Z,4608
2018-05-06T05:47:14.851Z,4660
2018-05-06T05:48:14.863Z,4724
2018-05-06T05:49:14.632Z,4700
2018-05-06T05:50:14.652Z,4536
2018-05-06T05:51:14.934Z,4128
2018-05-06T05:52:14.458Z,4420
2018-05-06T05:53:14.724Z,4256
2018-05-06T05:54:14.748Z,4900
2018-05-06T05:55:14.508Z,5016
2018-05-06T05:56:15.054Z,5064
2018-05-06T05:57:15.062Z,5184
2018-05-06T05:58:14.852Z,5268
2018-05-06T05:59:15.177Z,5264
2018-05-06T06:00:14.895Z,5348
2018-05-06T06:01:15.141Z,5356
2018-05-06T06:02:15.193Z,5460
2018-05-06T06:03:15.215Z,5492
2018-05-06T06:04:15.249Z,5496
2018-05-06T06:05:14.757Z,5480
2018-05-06T06:06:15.277Z,5540
2018-05-06T06:07:15.305Z,5632
2018-05-06T06:08:15.325Z,5760
2018-05-06T06:09:15.350Z,5848
2018-05-06T06:10:15.364Z,5876
2018-05-06T06:11:15.134Z,5900
2018-05-06T06:12:15.156Z,5880
2018-05-06T06:13:15.459Z,5940
2018-05-06T06:14:15.510Z,6004
2018-05-06T06:15:15.478Z,6068
2018-05-06T06:16:14.993Z,6096
2018-05-06T06:17:15.278Z,6080
2018-05-06T06:18:15.292Z,6208
2018-05-06T06:19:15.572Z,6244
2018-05-06T06:20:15.341Z,6332
2018-05-06T06:21:15.615Z,6376
2018-05-06T06:22:15.131Z,6408
2018-05-06T06:23:15.659Z,6416
2018-05-06T06:24:15.692Z,6392
2018-05-06T06:25:15.454Z,6444
2018-05-06T06:26:15.474Z,6472
2018-05-06T06:27:14.987Z,6644
2018-05-06T06:28:15.772Z,6812
2018-05-06T06:29:15.069Z,6920
2018-05-06T06:30:15.802Z,5888
2018-05-06T06:31:15.315Z,6292
2018-05-06T06:32:15.918Z,7360
2018-05-06T06:33:15.873Z,7204
2018-05-06T06:34:15.647Z,6716
2018-05-06T06:35:15.663Z,6560
2018-05-06T06:36:15.958Z,6544
2018-05-06T06:37:15.703Z,6600
2018-05-06T06:38:16.068Z,6640
2018-05-06T06:39:15.842Z,6604
2018-05-06T06:40:15.793Z,6624
2018-05-06T06:41:16.091Z,6624
2018-05-06T06:42:16.093Z,6668
2018-05-06T06:43:16.123Z,6652
2018-05-06T06:44:16.195Z,6704
2018-05-06T06:45:16.167Z,6720
2018-05-06T06:46:16.209Z,6732
2018-05-06T06:47:15.953Z,6768
2018-05-06T06:48:15.979Z,6788
2018-05-06T06:49:15.749Z,6788
2018-05-06T06:50:16.280Z,6804
2018-05-06T06:51:16.048Z,6824
2018-05-06T06:52:16.081Z,6840
2018-05-06T06:53:16.352Z,6872
2018-05-06T06:54:16.216Z,6880
2018-05-06T06:55:16.144Z,6900
2018-05-06T06:56:16.430Z,6944
2018-05-06T06:57:16.190Z,6980
2018-05-06T06:58:16.437Z,6992
2018-05-06T06:59:16.264Z,7016
2018-05-06T07:00:16.267Z,7040
2018-05-06T07:01:16.543Z,7072
2018-05-06T07:02:16.569Z,7084
2018-05-06T07:03:16.592Z,7092
2018-05-06T07:04:16.652Z,7112
2018-05-06T07:05:16.378Z,7140
2018-05-06T07:06:16.402Z,7144
2018-05-06T07:07:16.684Z,7160
2018-05-06T07:08:16.442Z,7172
2018-05-06T07:09:16.568Z,7184
2018-05-06T07:10:16.241Z,7216
2018-05-06T07:11:16.627Z,7248
2018-05-06T07:12:16.796Z,7280
2018-05-06T07:13:16.826Z,7288
2018-05-06T07:14:16.395Z,7316
2018-05-06T07:15:16.615Z,7336
2018-05-06T07:16:16.382Z,7340
2018-05-06T07:17:16.667Z,7360
2018-05-06T07:18:16.685Z,7400
2018-05-06T07:19:17.226Z,7412
2018-05-06T07:20:16.989Z,7424
2018-05-06T07:21:16.763Z,7440
2018-05-06T07:22:16.524Z,7460
2018-05-06T07:23:17.056Z,7492
2018-05-06T07:24:17.083Z,7516
2018-05-06T07:25:17.107Z,7512
2018-05-06T07:26:17.127Z,7532
2018-05-06T07:27:16.901Z,7544
2018-05-06T07:28:16.929Z,7576
2018-05-06T07:29:16.954Z,7576
2018-05-06T07:30:17.223Z,7600
2018-05-06T07:31:17.255Z,7616
2018-05-06T07:32:16.764Z,7644
2018-05-06T07:33:17.309Z,7648
2018-05-06T07:34:17.114Z,7668
2018-05-06T07:35:17.342Z,7684
2018-05-06T07:36:17.419Z,7692
2018-05-06T07:37:17.395Z,7716
2018-05-06T07:38:17.165Z,7740
2018-05-06T07:39:17.199Z,7772
2018-05-06T07:40:16.958Z,7788
2018-05-06T07:41:17.228Z,7804
2018-05-06T07:42:17.508Z,7840
2018-05-06T07:43:17.281Z,7852
2018-05-06T07:44:17.562Z,7856
2018-05-06T07:45:17.334Z,7892
2018-05-06T07:46:17.361Z,7928
2018-05-06T07:47:17.634Z,7948
2018-05-06T07:48:17.405Z,7968
2018-05-06T07:49:17.480Z,7992
2018-05-06T07:50:17.456Z,8016
2018-05-06T07:51:17.741Z,8036
2018-05-06T07:52:17.751Z,8052
2018-05-06T07:53:17.527Z,8084
2018-05-06T07:54:17.811Z,8116
2018-05-06T07:55:17.821Z,8160
2018-05-06T07:56:17.593Z,8168
2018-05-06T07:57:17.874Z,8200
2018-05-06T07:58:17.652Z,8224
2018-05-06T07:59:17.929Z,8244
2018-05-06T08:00:17.700Z,8260
2018-05-06T08:01:17.979Z,8284
2018-05-06T08:02:17.797Z,8324
2018-05-06T08:03:18.028Z,8316
2018-05-06T08:04:17.849Z,8328
2018-05-06T08:05:18.083Z,8344
2018-05-06T08:06:17.846Z,8388
2018-05-06T08:07:17.617Z,8412
2018-05-06T08:08:18.148Z,8420
2018-05-06T08:09:18.188Z,8452
2018-05-06T08:10:17.941Z,8508
2018-05-06T08:11:18.225Z,8536
2018-05-06T08:12:18.243Z,8572
2018-05-06T08:13:18.271Z,8592
2018-05-06T08:14:18.303Z,8616
2018-05-06T08:15:18.064Z,8612
2018-05-06T08:16:18.036Z,8640
2018-05-06T08:17:18.119Z,8660
2018-05-06T08:18:18.143Z,8728
2018-05-06T08:19:17.963Z,8752
2018-05-06T08:20:18.200Z,8772
2018-05-06T08:21:18.220Z,8792
2018-05-06T08:22:18.238Z,8796
2018-05-06T08:23:18.011Z,8824
2018-05-06T08:24:18.290Z,8864
2018-05-06T08:25:18.314Z,8892
2018-05-06T08:26:18.356Z,8944
2018-05-06T08:27:18.366Z,8984
2018-05-06T08:28:18.662Z,9012
2018-05-06T08:29:18.665Z,9052
2018-05-06T08:30:18.692Z,9088
2018-05-06T08:31:18.648Z,9104
2018-05-06T08:32:18.475Z,9116
2018-05-06T08:33:18.495Z,9120
2018-05-06T08:34:18.821Z,9164
2018-05-06T08:35:18.805Z,9148
2018-05-06T08:36:18.837Z,9208
2018-05-06T08:37:18.594Z,9228
2018-05-06T08:38:18.626Z,9248
2018-05-06T08:39:18.899Z,9248
2018-05-06T08:40:18.920Z,9280
2018-05-06T08:41:18.438Z,9312
2018-05-06T08:42:18.715Z,9316
2018-05-06T08:43:18.494Z,9352
2018-05-06T08:44:18.537Z,9344
2018-05-06T08:45:18.851Z,9368
2018-05-06T08:46:19.085Z,9416
2018-05-06T08:47:19.134Z,9460
2018-05-06T08:48:18.871Z,9424
2018-05-06T08:49:18.951Z,9460
2018-05-06T08:50:18.934Z,9480
2018-05-06T08:51:18.722Z,9500
2018-05-06T08:52:19.253Z,9480
2018-05-06T08:53:19.281Z,9548
2018-05-06T08:54:19.054Z,9552
2018-05-06T08:55:18.816Z,9592
2018-05-06T08:56:19.099Z,9604
2018-05-06T08:57:19.123Z,9616
2018-05-06T08:58:18.970Z,9620
2018-05-06T08:59:18.686Z,9640
2018-05-06T09:00:19.460Z,9652
2018-05-06T09:01:19.487Z,9684
2018-05-06T09:02:19.509Z,9704
2018-05-06T09:03:19.525Z,9704
2018-05-06T09:04:19.619Z,9720
2018-05-06T09:05:19.581Z,9732
2018-05-06T09:06:19.358Z,9752
2018-05-06T09:07:19.383Z,9800
2018-05-06T09:08:19.405Z,9808
2018-05-06T09:09:19.179Z,9828
2018-05-06T09:10:19.211Z,9832
2018-05-06T09:11:19.826Z,9852
2018-05-06T09:12:19.509Z,9860
2018-05-06T09:13:19.806Z,9900
2018-05-06T09:14:19.559Z,9928
2018-05-06T09:15:19.590Z,9932
2018-05-06T09:16:19.359Z,9944
2018-05-06T09:17:19.901Z,9952
2018-05-06T09:18:19.671Z,9976
2018-05-06T09:19:19.985Z,10012
2018-05-06T09:20:19.712Z,10024
2018-05-06T09:21:19.997Z,10048
2018-05-06T09:22:19.512Z,10096
2018-05-06T09:23:20.049Z,10080
2018-05-06T09:24:20.075Z,10108
2018-05-06T09:25:20.170Z,10152
2018-05-06T09:26:20.129Z,10184
2018-05-06T09:27:19.896Z,10184
2018-05-06T09:28:19.927Z,10356
2018-05-06T09:29:20.196Z,11052
2018-05-06T09:30:19.967Z,11652
2018-05-06T09:31:20.269Z,11752
2018-05-06T09:32:20.507Z,11816
2018-05-06T09:33:20.318Z,11976
2018-05-06T09:34:20.138Z,12076
2018-05-06T09:35:20.375Z,12156
2018-05-06T09:36:20.403Z,12264
2018-05-06T09:37:20.182Z,12328
2018-05-06T09:38:20.431Z,12364
2018-05-06T09:39:20.465Z,12456
2018-05-06T09:40:20.499Z,12504
2018-05-06T09:41:20.274Z,12512
2018-05-06T09:42:20.296Z,12584
2018-05-06T09:43:20.568Z,12672
2018-05-06T09:44:20.783Z,12744
2018-05-06T09:45:20.652Z,12808
2018-05-06T09:46:20.677Z,12844
2018-05-06T09:47:20.454Z,12892
2018-05-06T09:48:20.734Z,13004
2018-05-06T09:49:20.807Z,13124
2018-05-06T09:50:20.787Z,13316
2018-05-06T09:51:20.569Z,13516
2018-05-06T09:52:20.591Z,13640
2018-05-06T09:53:20.875Z,13796
2018-05-06T09:54:20.901Z,13884
2018-05-06T09:55:20.671Z,13816
2018-05-06T09:56:20.967Z,13956
2018-05-06T09:57:20.748Z,14400
2018-05-06T09:58:20.780Z,14592
2018-05-06T09:59:21.055Z,14752
2018-05-06T10:00:21.086Z,14976
2018-05-06T10:01:20.612Z,14944
2018-05-06T10:02:20.890Z,14944
2018-05-06T10:03:20.939Z,15168
2018-05-06T10:04:21.274Z,15232
2018-05-06T10:05:21.237Z,15392
2018-05-06T10:06:21.037Z,15648
2018-05-06T10:07:21.047Z,15904
2018-05-06T10:08:21.322Z,16192
2018-05-06T10:09:21.382Z,16256
2018-05-06T10:10:21.401Z,16448
2018-05-06T10:11:21.164Z,17088
2018-05-06T10:12:21.203Z,17120
2018-05-06T10:13:21.214Z,17408
2018-05-06T10:14:21.392Z,17728
2018-05-06T10:15:21.035Z,18080
2018-05-06T10:16:21.552Z,18240
2018-05-06T10:17:21.084Z,18112
2018-05-06T10:18:21.360Z,18304
2018-05-06T10:19:21.445Z,18784
2018-05-06T10:20:21.428Z,18784
2018-05-06T10:21:21.731Z,18336
2018-05-06T10:22:21.695Z,18272
2018-05-06T10:23:21.810Z,18464
2018-05-06T10:24:21.574Z,18560
2018-05-06T10:25:21.622Z,19008
2018-05-06T10:26:21.484Z,19232
2018-05-06T10:27:21.926Z,19072
2018-05-06T10:28:21.720Z,18752
2018-05-06T10:29:21.988Z,18496
2018-05-06T10:30:21.517Z,18464
2018-05-06T10:31:22.050Z,18592
2018-05-06T10:32:22.084Z,18816
2018-05-06T10:33:21.865Z,19616
2018-05-06T10:34:22.204Z,20000
2018-05-06T10:35:21.923Z,20448
2018-05-06T10:36:21.708Z,20544
2018-05-06T10:37:22.255Z,20704
2018-05-06T10:38:22.407Z,21280
2018-05-06T10:39:22.061Z,21632
2018-05-06T10:40:22.090Z,23040
2018-05-06T10:41:22.375Z,25632
2018-05-06T10:42:22.399Z,31328
2018-05-06T10:43:22.210Z,36832
2018-05-06T10:44:22.580Z,37344
2018-05-06T10:45:22.255Z,32576
2018-05-06T10:46:22.545Z,25152
2018-05-06T10:47:22.392Z,20992
2018-05-06T10:48:22.620Z,18848
2018-05-06T10:49:22.415Z,18752
2018-05-06T10:50:23.249Z,18880
2018-05-06T10:51:22.700Z,18208
2018-05-06T10:52:22.223Z,18272
2018-05-06T10:53:22.775Z,18176
2018-05-06T10:54:22.808Z,17920
2018-05-06T10:55:22.836Z,17824
2018-05-06T10:56:22.869Z,17888
2018-05-06T10:57:22.437Z,18464
2018-05-06T10:58:22.948Z,18176
2018-05-06T10:59:22.512Z,18528
2018-05-06T11:00:23.006Z,19424
2018-05-06T11:01:23.047Z,19936
2018-05-06T11:02:23.150Z,20288
2018-05-06T11:03:23.102Z,20192
2018-05-06T11:04:22.891Z,20800
2018-05-06T11:05:22.925Z,21216
2018-05-06T11:06:23.200Z,20384
2018-05-06T11:07:23.230Z,21888
2018-05-06T11:08:23.264Z,23744
2018-05-06T11:09:23.305Z,24800
2018-05-06T11:10:23.797Z,25376
2018-05-06T11:11:23.129Z,24192
2018-05-06T11:12:22.642Z,22656
2018-05-06T11:13:23.438Z,24704
2018-05-06T11:14:23.275Z,28640
2018-05-06T11:15:23.248Z,29344
2018-05-06T11:16:23.537Z,29184
2018-05-06T11:17:23.568Z,29952
2018-05-06T11:18:23.608Z,32608
2018-05-06T11:19:23.137Z,34528
2018-05-06T11:20:23.370Z,33856
2018-05-06T11:21:23.455Z,33728
2018-05-06T11:22:23.494Z,33664
2018-05-06T11:23:23.269Z,33728
2018-05-06T11:24:23.298Z,33376
2018-05-06T11:25:23.598Z,33952
2018-05-06T11:26:24.110Z,34176
2018-05-06T11:27:23.398Z,36288
2018-05-06T11:28:23.953Z,38208
2018-05-06T11:29:23.770Z,37120
2018-05-06T11:30:24.017Z,36896
2018-05-06T11:31:23.795Z,32576
2018-05-06T11:32:23.842Z,30944
2018-05-06T11:33:24.304Z,33984
2018-05-06T11:34:23.892Z,37792
2018-05-06T11:35:24.199Z,40224
2018-05-06T11:36:23.963Z,41568
2018-05-06T11:37:24.250Z,41344
2018-05-06T11:38:23.782Z,40576
2018-05-06T11:39:24.321Z,41440
2018-05-06T11:40:24.109Z,44480
2018-05-06T11:41:24.135Z,44544
2018-05-06T11:42:23.920Z,43520
2018-05-06T11:43:24.198Z,45312
2018-05-06T11:44:24.382Z,46496
2018-05-06T11:45:24.519Z,45920
2018-05-06T11:46:24.046Z,45056
2018-05-06T11:47:24.334Z,42080
2018-05-06T11:48:24.626Z,44576
2018-05-06T11:49:24.663Z,47680
2018-05-06T11:50:24.445Z,50112
2018-05-06T11:51:24.737Z,52352
2018-05-06T11:52:24.781Z,51328
2018-05-06T11:53:24.816Z,49760
2018-05-06T11:54:24.593Z,50176
2018-05-06T11:55:24.713Z,51808
2018-05-06T11:56:25.106Z,52256
2018-05-06T11:57:24.437Z,49728
2018-05-06T11:58:24.984Z,49440
2018-05-06T11:59:25.072Z,50592
2018-05-06T12:00:25.054Z,46464
2018-05-06T12:01:25.094Z,45088
2018-05-06T12:02:25.082Z,51968
2018-05-06T12:03:24.909Z,54784
2018-05-06T12:04:24.944Z,54656
2018-05-06T12:05:25.227Z,58112
2018-05-06T12:06:25.015Z,58464
2018-05-06T12:07:25.150Z,58368
2018-05-06T12:08:24.829Z,57440
2018-05-06T12:09:25.380Z,54912
2018-05-06T12:10:25.414Z,53600
2018-05-06T12:11:25.442Z,55744
2018-05-06T12:12:25.222Z,58240
2018-05-06T12:13:25.267Z,59200
2018-05-06T12:14:25.706Z,59744
2018-05-06T12:15:25.339Z,58816
2018-05-06T12:16:25.638Z,57888
2018-05-06T12:17:25.415Z,55552
2018-05-06T12:18:25.197Z,55232
2018-05-06T12:19:25.464Z,57824
2018-05-06T12:20:25.743Z,57056
2018-05-06T12:21:25.779Z,55616
2018-05-06T12:22:25.817Z,56000
2018-05-06T12:23:25.603Z,58080
2018-05-06T12:24:25.639Z,58624
2018-05-06T12:25:25.676Z,59072
2018-05-06T12:26:25.997Z,59328
2018-05-06T12:27:26.121Z,60512
2018-05-06T12:28:26.073Z,61056
2018-05-06T12:29:25.691Z,60320
2018-05-06T12:30:25.892Z,58720
2018-05-06T12:31:26.173Z,57984
2018-05-06T12:32:26.208Z,56000
2018-05-06T12:33:26.250Z,52576
2018-05-06T12:34:25.520Z,50688
2018-05-06T12:35:26.407Z,51808
2018-05-06T12:36:26.365Z,52416
2018-05-06T12:37:26.399Z,51904
2018-05-06T12:38:26.177Z,50272
2018-05-06T12:39:26.223Z,50208
2018-05-06T12:40:26.505Z,52160
2018-05-06T12:41:26.543Z,53280
2018-05-06T12:42:26.073Z,54016
2018-05-06T12:43:26.613Z,54944
2018-05-06T12:44:26.294Z,55328
2018-05-06T12:45:26.687Z,55840
2018-05-06T12:46:26.472Z,59584
2018-05-06T12:47:26.534Z,62752
2018-05-06T12:48:26.541Z,64672
2018-05-06T12:49:26.766Z,64064
2018-05-06T12:50:26.885Z,63136
2018-05-06T12:51:26.910Z,64352
2018-05-06T12:52:26.945Z,67648
2018-05-06T12:53:26.739Z,67616
2018-05-06T12:54:26.514Z,66208
2018-05-06T12:55:27.393Z,65824
2018-05-06T12:56:27.088Z,65888
2018-05-06T12:57:26.867Z,67072
2018-05-06T12:58:26.906Z,66944
2018-05-06T12:59:27.329Z,66912
2018-05-06T13:00:27.251Z,66976
2018-05-06T13:01:27.283Z,66400
2018-05-06T13:02:27.670Z,65088
2018-05-06T13:03:27.107Z,65408
2018-05-06T13:04:26.875Z,67360
2018-05-06T13:05:26.909Z,67552
2018-05-06T13:06:27.192Z,67968
2018-05-06T13:07:27.232Z,69376
2018-05-06T13:08:27.534Z,69152
2018-05-06T13:09:27.561Z,67904
2018-05-06T13:10:27.602Z,66176
2018-05-06T13:11:27.847Z,64896
2018-05-06T13:12:27.430Z,63552
2018-05-06T13:13:27.731Z,59424
2018-05-06T13:14:28.352Z,54816
2018-05-06T13:15:27.803Z,52384
2018-05-06T13:16:27.582Z,55392
2018-05-06T13:17:27.876Z,57312
2018-05-06T13:18:27.915Z,61600
2018-05-06T13:19:27.701Z,65088
2018-05-06T13:20:27.735Z,68768
2018-05-06T13:21:27.516Z,71008
2018-05-06T13:22:28.044Z,70592
2018-05-06T13:23:28.091Z,71040
2018-05-06T13:24:27.913Z,71008
2018-05-06T13:25:27.905Z,71456
2018-05-06T13:26:28.219Z,69728
2018-05-06T13:27:27.992Z,70560
2018-05-06T13:28:28.278Z,71392
2018-05-06T13:29:27.862Z,72224
2018-05-06T13:30:27.853Z,69024
2018-05-06T13:31:27.909Z,68864
2018-05-06T13:32:28.449Z,72928